SAS173 ENZV-ENBR
Flight info
| Callsign | SAS173 |
|---|---|
| Flight time | 0h 23m |
| Altitude | 16000 |
| Route | ALUVA |
| Aircraft | A320/M-SDE3FGHIRWY/LB1 |
Departure
| Time | 2026-05-08 06:57 |
|---|---|
| Airport | Stavanger Airport, Sola (ENZV) |
Arrival
| Time | 2026-05-08 07:20 |
|---|---|
| Airport | Bergen Airport, Flesland (ENBR) |
| Time | Latitude | Longitude | Altitude | Speed | Heading |
|---|---|---|---|---|---|
| 2026-05-08 06:46 | 58.88130 | 5.63021 | 31 ft | 0 kts | 315° |
| 2026-05-08 06:50 | 58.88120 | 5.63039 | 30 ft | 3 kts | 315° |
| 2026-05-08 06:51 | 58.88108 | 5.63063 | 27 ft | 2 kts | 315° |
| 2026-05-08 06:51 | 58.88097 | 5.63084 | 29 ft | 2 kts | 315° |
| 2026-05-08 06:51 | 58.88086 | 5.63105 | 26 ft | 2 kts | 315° |
| 2026-05-08 06:52 | 58.88088 | 5.63101 | 30 ft | 3 kts | 315° |
| 2026-05-08 06:53 | 58.88126 | 5.63120 | 25 ft | 8 kts | 43° |
| 2026-05-08 06:53 | 58.88169 | 5.63203 | 26 ft | 9 kts | 44° |
| 2026-05-08 06:53 | 58.88213 | 5.63271 | 29 ft | 8 kts | 35° |
| 2026-05-08 06:53 | 58.88260 | 5.63328 | 31 ft | 9 kts | 30° |
| 2026-05-08 06:54 | 58.88329 | 5.63391 | 32 ft | 14 kts | 20° |
| 2026-05-08 06:54 | 58.88443 | 5.63426 | 31 ft | 19 kts | 1° |
| 2026-05-08 06:54 | 58.88595 | 5.63426 | 31 ft | 24 kts | 0° |
| 2026-05-08 06:54 | 58.88774 | 5.63415 | 31 ft | 28 kts | 356° |
| 2026-05-08 06:55 | 58.88978 | 5.63405 | 28 ft | 31 kts | 360° |
| 2026-05-08 06:55 | 58.89207 | 5.63404 | 25 ft | 34 kts | 360° |
| 2026-05-08 06:55 | 58.89335 | 5.63470 | 20 ft | 20 kts | 55° |
| 2026-05-08 06:55 | 58.89331 | 5.63686 | 18 ft | 12 kts | 117° |
| 2026-05-08 06:56 | 58.89277 | 5.63738 | 19 ft | 7 kts | 178° |
| 2026-05-08 06:56 | 58.89184 | 5.63741 | 21 ft | 36 kts | 179° |
| 2026-05-08 06:56 | 58.88712 | 5.63761 | 28 ft | 97 kts | 179° |
| 2026-05-08 06:56 | 58.87872 | 5.63783 | 38 ft | 143 kts | 179° |
| 2026-05-08 06:57 | 58.86872 | 5.63785 | 592 ft | 141 kts | 178° |
| 2026-05-08 06:57 | 58.85883 | 5.63822 | 1245 ft | 143 kts | 176° |
| 2026-05-08 06:57 | 58.84869 | 5.63791 | 1741 ft | 153 kts | 186° |
| 2026-05-08 06:57 | 58.83834 | 5.62981 | 2143 ft | 173 kts | 213° |
| 2026-05-08 06:58 | 58.83057 | 5.61077 | 2584 ft | 192 kts | 242° |
| 2026-05-08 06:58 | 58.82796 | 5.58381 | 2974 ft | 221 kts | 268° |
| 2026-05-08 06:58 | 58.83208 | 5.55356 | 3471 ft | 246 kts | 294° |
| 2026-05-08 06:58 | 58.84307 | 5.52681 | 4123 ft | 265 kts | 318° |
| 2026-05-08 06:59 | 58.85928 | 5.50824 | 4897 ft | 277 kts | 336° |
| 2026-05-08 06:59 | 58.87758 | 5.49456 | 5642 ft | 287 kts | 334° |
| 2026-05-08 06:59 | 58.89605 | 5.47794 | 6358 ft | 296 kts | 331° |
| 2026-05-08 06:59 | 58.91448 | 5.45944 | 7188 ft | 299 kts | 328° |
| 2026-05-08 07:00 | 58.93243 | 5.44008 | 8287 ft | 290 kts | 327° |
| 2026-05-08 07:00 | 58.94999 | 5.42064 | 9195 ft | 292 kts | 327° |
| 2026-05-08 07:00 | 58.96784 | 5.40113 | 10002 ft | 297 kts | 328° |
| 2026-05-08 07:00 | 58.98622 | 5.38152 | 10536 ft | 311 kts | 328° |
| 2026-05-08 07:01 | 59.00571 | 5.36117 | 10742 ft | 334 kts | 329° |
| 2026-05-08 07:01 | 59.02720 | 5.33914 | 10895 ft | 357 kts | 329° |
| 2026-05-08 07:01 | 59.04991 | 5.31622 | 11022 ft | 378 kts | 330° |
| 2026-05-08 07:01 | 59.07360 | 5.29249 | 11196 ft | 396 kts | 330° |
| 2026-05-08 07:02 | 59.09831 | 5.26780 | 11706 ft | 402 kts | 330° |
| 2026-05-08 07:02 | 59.12329 | 5.24280 | 12335 ft | 405 kts | 330° |
| 2026-05-08 07:02 | 59.14841 | 5.21751 | 12988 ft | 408 kts | 330° |
| 2026-05-08 07:02 | 59.17371 | 5.19193 | 13651 ft | 411 kts | 330° |
| 2026-05-08 07:03 | 59.19916 | 5.16610 | 14282 ft | 414 kts | 330° |
| 2026-05-08 07:03 | 59.22481 | 5.14001 | 14859 ft | 417 kts | 329° |
| 2026-05-08 07:03 | 59.25067 | 5.11359 | 15403 ft | 421 kts | 329° |
| 2026-05-08 07:03 | 59.27671 | 5.08682 | 15911 ft | 425 kts | 329° |
| 2026-05-08 07:04 | 59.30293 | 5.05981 | 16121 ft | 426 kts | 329° |
| 2026-05-08 07:04 | 59.32937 | 5.03261 | 16167 ft | 431 kts | 329° |
| 2026-05-08 07:04 | 59.35600 | 5.00532 | 16166 ft | 432 kts | 329° |
| 2026-05-08 07:04 | 59.38370 | 4.98191 | 16167 ft | 437 kts | 338° |
| 2026-05-08 07:05 | 59.41346 | 4.96707 | 16168 ft | 445 kts | 348° |
| 2026-05-08 07:05 | 59.44450 | 4.96372 | 16172 ft | 450 kts | 359° |
| 2026-05-08 07:05 | 59.47581 | 4.96516 | 16171 ft | 450 kts | 359° |
| 2026-05-08 07:05 | 59.50712 | 4.96655 | 16176 ft | 450 kts | 359° |
| 2026-05-08 07:06 | 59.53845 | 4.96799 | 16170 ft | 450 kts | 359° |
| 2026-05-08 07:06 | 59.56974 | 4.96950 | 16174 ft | 451 kts | 359° |
| 2026-05-08 07:06 | 59.60112 | 4.97107 | 16173 ft | 451 kts | 359° |
| 2026-05-08 07:06 | 59.63247 | 4.97272 | 16172 ft | 451 kts | 359° |
| 2026-05-08 07:07 | 59.66383 | 4.97438 | 16173 ft | 451 kts | 359° |
| 2026-05-08 07:07 | 59.69515 | 4.97605 | 16171 ft | 450 kts | 359° |
| 2026-05-08 07:07 | 59.72648 | 4.97771 | 16162 ft | 450 kts | 359° |
| 2026-05-08 07:07 | 59.75779 | 4.97936 | 16160 ft | 450 kts | 359° |
| 2026-05-08 07:08 | 59.78906 | 4.98101 | 16157 ft | 450 kts | 359° |
| 2026-05-08 07:08 | 59.82034 | 4.98264 | 16158 ft | 450 kts | 359° |
| 2026-05-08 07:08 | 59.85164 | 4.98426 | 16152 ft | 450 kts | 359° |
| 2026-05-08 07:08 | 59.88295 | 4.98588 | 16149 ft | 450 kts | 359° |
| 2026-05-08 07:09 | 59.91422 | 4.98751 | 16143 ft | 448 kts | 359° |
| 2026-05-08 07:09 | 59.94508 | 4.98916 | 15563 ft | 439 kts | 359° |
| 2026-05-08 07:09 | 59.97542 | 4.99081 | 14935 ft | 434 kts | 359° |
| 2026-05-08 07:09 | 60.00543 | 4.99241 | 14318 ft | 430 kts | 359° |
| 2026-05-08 07:10 | 60.03510 | 4.99392 | 13676 ft | 426 kts | 359° |
| 2026-05-08 07:10 | 60.06467 | 4.99543 | 12997 ft | 422 kts | 359° |
| 2026-05-08 07:10 | 60.09388 | 4.99696 | 12344 ft | 415 kts | 359° |
| 2026-05-08 07:10 | 60.12214 | 4.99852 | 11697 ft | 401 kts | 359° |
| 2026-05-08 07:11 | 60.14989 | 5.00007 | 11065 ft | 397 kts | 360° |
| 2026-05-08 07:11 | 60.17735 | 5.00158 | 10439 ft | 393 kts | 360° |
| 2026-05-08 07:11 | 60.20457 | 5.00304 | 9800 ft | 390 kts | 0° |
| 2026-05-08 07:11 | 60.23160 | 5.00448 | 9121 ft | 386 kts | 0° |
| 2026-05-08 07:12 | 60.25823 | 5.00589 | 8509 ft | 377 kts | 0° |
| 2026-05-08 07:12 | 60.28367 | 5.00723 | 7994 ft | 355 kts | 0° |
| 2026-05-08 07:12 | 60.30774 | 5.00850 | 7521 ft | 337 kts | 0° |
| 2026-05-08 07:12 | 60.33064 | 5.00971 | 7091 ft | 322 kts | 0° |
| 2026-05-08 07:13 | 60.35250 | 5.01085 | 6668 ft | 315 kts | 0° |
| 2026-05-08 07:13 | 60.37426 | 5.01201 | 6226 ft | 303 kts | 1° |
| 2026-05-08 07:13 | 60.39503 | 5.01314 | 5775 ft | 294 kts | 1° |
| 2026-05-08 07:13 | 60.41532 | 5.01425 | 5360 ft | 288 kts | 1° |
| 2026-05-08 07:14 | 60.43479 | 5.01528 | 4993 ft | 279 kts | 2° |
| 2026-05-08 07:14 | 60.45379 | 5.01759 | 4644 ft | 268 kts | 14° |
| 2026-05-08 07:14 | 60.46977 | 5.03403 | 4302 ft | 254 kts | 50° |
| 2026-05-08 07:14 | 60.47879 | 5.06356 | 3957 ft | 237 kts | 83° |
| 2026-05-08 07:15 | 60.47957 | 5.09512 | 3704 ft | 220 kts | 108° |
| 2026-05-08 07:15 | 60.47489 | 5.12315 | 3597 ft | 203 kts | 126° |
| 2026-05-08 07:15 | 60.46663 | 5.14500 | 3447 ft | 190 kts | 143° |
| 2026-05-08 07:15 | 60.45606 | 5.15974 | 3259 ft | 182 kts | 158° |
| 2026-05-08 07:16 | 60.44414 | 5.16724 | 3033 ft | 179 kts | 172° |
| 2026-05-08 07:16 | 60.43190 | 5.17135 | 2797 ft | 177 kts | 172° |
| 2026-05-08 07:16 | 60.41982 | 5.17544 | 2578 ft | 174 kts | 172° |
| 2026-05-08 07:16 | 60.40811 | 5.17942 | 2323 ft | 168 kts | 171° |
| 2026-05-08 07:17 | 60.39672 | 5.18328 | 2081 ft | 163 kts | 171° |
| 2026-05-08 07:17 | 60.38592 | 5.18693 | 1858 ft | 151 kts | 171° |
| 2026-05-08 07:17 | 60.37613 | 5.19025 | 1674 ft | 132 kts | 172° |
| 2026-05-08 07:17 | 60.36734 | 5.19322 | 1490 ft | 125 kts | 171° |
| 2026-05-08 07:18 | 60.35887 | 5.19608 | 1311 ft | 122 kts | 171° |
| 2026-05-08 07:18 | 60.35061 | 5.19886 | 1133 ft | 119 kts | 171° |
| 2026-05-08 07:18 | 60.34232 | 5.20164 | 989 ft | 122 kts | 171° |
| 2026-05-08 07:18 | 60.33378 | 5.20455 | 782 ft | 127 kts | 170° |
| 2026-05-08 07:19 | 60.32512 | 5.20783 | 609 ft | 125 kts | 167° |
| 2026-05-08 07:19 | 60.31663 | 5.21049 | 460 ft | 121 kts | 168° |
| 2026-05-08 07:19 | 60.30852 | 5.21317 | 302 ft | 118 kts | 166° |
| 2026-05-08 07:19 | 60.30042 | 5.21590 | 176 ft | 113 kts | 168° |
| 2026-05-08 07:20 | 60.29417 | 5.21791 | 174 ft | 67 kts | 171° |
| 2026-05-08 07:20 | 60.29129 | 5.21884 | 178 ft | 18 kts | 172° |
| 2026-05-08 07:20 | 60.29064 | 5.21902 | 176 ft | 16 kts | 172° |
| 2026-05-08 07:20 | 60.28912 | 5.22024 | 173 ft | 18 kts | 105° |
| 2026-05-08 07:21 | 60.28902 | 5.22264 | 174 ft | 17 kts | 133° |
| 2026-05-08 07:21 | 60.28827 | 5.22333 | 174 ft | 18 kts | 147° |
| 2026-05-08 07:21 | 60.28730 | 5.22512 | 174 ft | 19 kts | 130° |
| 2026-05-08 07:21 | 60.28728 | 5.22787 | 174 ft | 21 kts | 83° |
| 2026-05-08 07:22 | 60.28736 | 5.22899 | 174 ft | 0 kts | 82° |